Time;durP1;ratioP1;P1;durP2;ratioP2;P2;SDS_P1;SDS_P2;PMS_P1;PMS_P2;Temp;Humidity;BMP_temperature;BMP_pressure;BME280_temperature;BME280_humidity;BME280_pressure;Samples;Min_cycle;Max_cycle;Signal;HPM_P1;HPM_P2
2023/07/27 00:01:59;;;;;;;9.00;4.45;;;;;;;13.86;100.00;100828.22;10433603;28;20060;-74
2023/07/27 00:06:59;;;;;;;9.93;4.88;;;;;;;13.87;100.00;100832.66;10445828;28;20128;-74
2023/07/27 00:12:00;;;;;;;7.88;5.15;;;;;;;13.90;100.00;100831.84;10421898;28;20049;-74
2023/07/27 00:17:00;;;;;;;9.32;3.92;;;;;;;13.86;100.00;100835.22;10441944;28;20626;-73
2023/07/27 00:22:01;;;;;;;9.95;5.03;;;;;;;13.79;100.00;100826.22;10437603;28;20040;-74
2023/07/27 00:27:02;;;;;;;12.75;5.88;;;;;;;13.71;100.00;100823.31;10481553;28;20049;-74
2023/07/27 00:32:02;;;;;;;9.57;5.38;;;;;;;13.62;100.00;100823.00;10506669;28;20513;-75
2023/07/27 00:37:03;;;;;;;10.02;5.50;;;;;;;13.58;100.00;100836.88;10494729;28;20083;-74
2023/07/27 00:42:04;;;;;;;14.45;5.63;;;;;;;13.50;100.00;100826.13;10489578;28;20435;-74
2023/07/27 00:47:05;;;;;;;12.98;7.43;;;;;;;13.44;100.00;100826.78;10430867;28;20492;-75
2023/07/27 00:52:07;;;;;;;10.25;5.85;;;;;;;13.42;100.00;100820.56;10419953;28;20045;-74
2023/07/27 00:57:07;;;;;;;;;;;;;;;13.42;100.00;100819.69;10473858;28;20068;-76
2023/07/27 01:02:08;;;;;;;10.40;6.25;;;;;;;13.39;100.00;100814.31;10499043;28;20050;-75
2023/07/27 01:07:08;;;;;;;12.07;7.07;;;;;;;13.34;100.00;100819.38;10448880;28;20057;-77
2023/07/27 01:12:14;;;;;;;11.52;6.18;;;;;;;13.29;100.00;100810.44;10398974;28;20069;-77
2023/07/27 01:17:22;;;;;;;13.75;6.82;;;;;;;13.27;100.00;100804.22;10446509;28;20508;-78
2023/07/27 01:22:32;;;;;;;8.07;5.80;;;;;;;13.20;100.00;100801.38;10465021;28;20045;-77
2023/07/27 01:27:47;;;;;;;12.93;6.45;;;;;;;13.15;100.00;100802.06;10463465;28;20041;-76
2023/07/27 01:32:52;;;;;;;12.95;7.25;;;;;;;13.13;100.00;100794.13;10490312;28;20123;-77
2023/07/27 01:37:52;;;;;;;9.88;6.25;;;;;;;13.07;100.00;100784.31;10449696;28;20052;-76
2023/07/27 01:42:53;;;;;;;14.00;7.90;;;;;;;13.06;100.00;100776.34;10451063;28;20063;-75
2023/07/27 01:47:53;;;;;;;19.45;7.38;;;;;;;12.99;100.00;100767.38;10423484;28;20045;-76
2023/07/27 01:52:54;;;;;;;10.38;7.47;;;;;;;12.88;100.00;100759.06;10421254;28;20131;-75
2023/07/27 01:57:56;;;;;;;11.15;7.03;;;;;;;12.78;100.00;100755.22;10420172;28;20178;-76
2023/07/27 02:02:57;;;;;;;13.55;6.82;;;;;;;12.77;100.00;100749.91;10414477;28;20041;-75
2023/07/27 02:07:57;;;;;;;12.88;6.95;;;;;;;12.77;100.00;100742.03;10435234;28;20044;-75
2023/07/27 02:13:04;;;;;;;11.38;6.93;;;;;;;12.74;100.00;100737.56;10437855;28;20122;-76
2023/07/27 02:18:10;;;;;;;11.48;6.72;;;;;;;12.71;100.00;100729.59;10451193;28;20044;-76
2023/07/27 02:23:11;;;;;;;15.35;11.52;;;;;;;12.69;100.00;100712.88;10487917;28;20036;-76
2023/07/27 02:28:11;;;;;;;12.25;6.78;;;;;;;12.72;100.00;100704.22;10474522;28;20550;-76
2023/07/27 02:33:12;;;;;;;13.25;8.75;;;;;;;12.76;100.00;100693.88;10498448;28;20045;-75
2023/07/27 02:38:12;;;;;;;15.23;8.48;;;;;;;12.81;100.00;100688.78;10499528;28;20446;-76
2023/07/27 02:43:13;;;;;;;13.50;9.13;;;;;;;12.83;100.00;100681.84;10487083;28;20092;-76
2023/07/27 02:48:13;;;;;;;12.45;7.30;;;;;;;12.86;100.00;100668.81;10492077;28;20072;-77
2023/07/27 02:53:14;;;;;;;13.70;8.05;;;;;;;12.88;100.00;100677.66;10486003;28;20379;-76
2023/07/27 02:58:14;;;;;;;15.35;7.57;;;;;;;12.89;100.00;100668.94;10494911;28;20395;-75
2023/07/27 03:03:15;;;;;;;12.95;7.80;;;;;;;12.92;100.00;100673.41;10491734;28;20115;-75
2023/07/27 03:08:15;;;;;;;15.63;8.55;;;;;;;12.90;100.00;100654.09;10502175;28;20118;-76
2023/07/27 03:13:16;;;;;;;14.32;8.48;;;;;;;12.92;100.00;100650.66;10490997;28;20184;-75
2023/07/27 03:18:17;;;;;;;15.15;9.15;;;;;;;12.90;100.00;100638.31;10482921;28;20097;-77
2023/07/27 03:23:18;;;;;;;11.93;8.25;;;;;;;12.93;100.00;100625.31;10512623;28;20113;-77
2023/07/27 03:28:18;;;;;;;9.95;8.13;;;;;;;12.93;100.00;100615.66;10501998;28;20113;-76
2023/07/27 03:33:19;;;;;;;15.80;9.68;;;;;;;12.92;100.00;100598.13;10506114;28;20050;-76
2023/07/27 03:38:19;;;;;;;18.05;10.02;;;;;;;12.94;100.00;100595.56;10515710;28;20381;-76
2023/07/27 03:43:20;;;;;;;12.55;9.07;;;;;;;13.00;100.00;100586.97;10494998;28;20048;-76
2023/07/27 03:48:20;;;;;;;18.30;9.50;;;;;;;13.03;100.00;100572.22;10496891;28;20046;-75
2023/07/27 03:53:21;;;;;;;15.05;8.85;;;;;;;13.01;100.00;100552.91;10510674;28;20051;-76
2023/07/27 03:58:21;;;;;;;15.63;8.80;;;;;;;13.03;100.00;100558.19;10506871;28;20040;-75
2023/07/27 04:03:22;;;;;;;13.40;9.50;;;;;;;13.02;100.00;100552.06;10488835;28;20380;-75
2023/07/27 04:08:22;;;;;;;12.90;9.05;;;;;;;12.98;100.00;100538.75;10501029;28;20532;-77
2023/07/27 04:13:23;;;;;;;12.85;8.60;;;;;;;12.99;100.00;100525.69;10503858;28;20040;-76
2023/07/27 04:18:23;;;;;;;12.13;7.78;;;;;;;12.99;100.00;100512.56;10487963;28;20032;-75
2023/07/27 04:23:24;;;;;;;13.25;7.68;;;;;;;12.95;100.00;100500.16;10505970;28;20133;-75
2023/07/27 04:28:25;;;;;;;14.48;8.55;;;;;;;12.94;100.00;100495.75;10506178;28;20096;-75
2023/07/27 04:33:25;;;;;;;16.17;8.43;;;;;;;13.00;100.00;100498.56;10509212;28;20044;-75
2023/07/27 04:38:26;;;;;;;12.95;7.78;;;;;;;12.97;100.00;100492.31;10485808;28;20380;-75
2023/07/27 04:43:26;;;;;;;11.77;7.85;;;;;;;13.02;100.00;100493.34;10511168;28;20578;-75
2023/07/27 04:48:27;;;;;;;14.00;8.05;;;;;;;13.09;100.00;100484.81;10482977;28;20052;-75
2023/07/27 04:53:27;;;;;;;14.77;8.70;;;;;;;13.13;100.00;100485.81;10480870;28;20060;-75
2023/07/27 04:58:28;;;;;;;12.43;8.88;;;;;;;13.13;100.00;100475.31;10465782;28;20559;-75
2023/07/27 05:03:28;;;;;;;14.00;7.30;;;;;;;13.16;100.00;100468.41;10501366;28;20119;-74
2023/07/27 05:08:29;;;;;;;10.23;8.07;;;;;;;13.18;100.00;100466.72;10494416;28;20135;-75
2023/07/27 05:13:29;;;;;;;12.57;7.85;;;;;;;13.20;100.00;100444.00;10498727;28;20036;-75
2023/07/27 05:18:30;;;;;;;12.52;7.53;;;;;;;13.26;100.00;100439.78;10495787;28;20041;-75
2023/07/27 05:23:30;;;;;;;13.05;7.63;;;;;;;13.29;100.00;100434.59;10515439;27;20043;-75
2023/07/27 05:28:31;;;;;;;10.80;6.57;;;;;;;13.32;100.00;100426.81;10496034;28;20397;-75
2023/07/27 05:33:31;;;;;;;12.00;7.45;;;;;;;13.35;100.00;100419.94;10485587;28;20074;-75
2023/07/27 05:38:32;;;;;;;9.73;7.20;;;;;;;13.44;100.00;100408.81;10497198;28;20048;-77
2023/07/27 05:43:32;;;;;;;9.95;6.97;;;;;;;13.57;100.00;100406.53;10497299;28;20036;-76
2023/07/27 05:48:34;;;;;;;10.00;6.85;;;;;;;13.61;100.00;100400.50;10487063;28;20450;-76
2023/07/27 05:53:34;;;;;;;10.50;8.60;;;;;;;13.69;100.00;100406.00;10511509;28;20399;-77
2023/07/27 05:58:35;;;;;;;9.65;6.40;;;;;;;13.79;100.00;100405.38;10477081;28;20051;-75
2023/07/27 06:03:36;;;;;;;9.05;6.07;;;;;;;13.90;100.00;100390.78;10464343;28;20090;-76
2023/07/27 06:08:37;;;;;;;15.02;6.88;;;;;;;13.93;100.00;100396.13;10495884;28;20133;-75
2023/07/27 06:13:37;;;;;;;10.93;6.70;;;;;;;14.08;100.00;100389.50;10494026;28;20118;-76
2023/07/27 06:18:38;;;;;;;10.05;6.05;;;;;;;14.19;100.00;100382.75;10527671;27;20488;-75
2023/07/27 06:23:38;;;;;;;8.52;4.93;;;;;;;14.35;100.00;100369.97;10486191;28;20047;-75
2023/07/27 06:28:39;;;;;;;9.85;4.75;;;;;;;14.39;100.00;100370.06;10480988;28;20551;-75
2023/07/27 06:33:39;;;;;;;8.38;5.47;;;;;;;14.35;100.00;100362.94;10468210;28;20044;-75
2023/07/27 06:38:40;;;;;;;7.28;4.85;;;;;;;14.43;100.00;100365.78;10500186;28;20144;-75
2023/07/27 06:43:41;;;;;;;6.32;3.58;;;;;;;14.47;100.00;100353.56;10456425;28;20116;-75
2023/07/27 06:48:41;;;;;;;6.97;4.47;;;;;;;14.48;100.00;100352.72;10499331;28;20407;-78
2023/07/27 06:53:42;;;;;;;9.68;4.95;;;;;;;14.58;100.00;100351.19;10486165;28;20070;-75
2023/07/27 06:58:42;;;;;;;7.93;5.07;;;;;;;14.71;100.00;100341.84;10485560;28;20082;-77
2023/07/27 07:03:43;;;;;;;6.47;4.50;;;;;;;14.76;100.00;100341.09;10468173;28;20478;-76
2023/07/27 07:08:43;;;;;;;8.18;5.97;;;;;;;14.89;100.00;100346.66;10498408;28;20037;-76
2023/07/27 07:13:44;;;;;;;6.30;4.43;;;;;;;14.87;100.00;100338.69;10495341;28;20407;-75
2023/07/27 07:18:44;;;;;;;7.82;5.13;;;;;;;14.92;100.00;100339.69;10480699;27;20038;-75
2023/07/27 07:23:45;;;;;;;9.10;5.10;;;;;;;14.96;100.00;100338.88;10495079;28;20036;-75
2023/07/27 07:28:45;;;;;;;9.05;4.82;;;;;;;15.05;100.00;100335.56;10496764;28;20891;-75
2023/07/27 07:33:46;;;;;;;10.60;5.30;;;;;;;15.20;100.00;100329.72;10492473;28;20036;-75
2023/07/27 07:38:46;;;;;;;9.48;5.78;;;;;;;15.23;100.00;100331.53;10462866;28;20045;-74
2023/07/27 07:43:47;;;;;;;5.95;3.92;;;;;;;15.31;100.00;100323.75;10442121;28;20203;-76
2023/07/27 07:48:47;;;;;;;10.02;4.55;;;;;;;15.17;100.00;100318.22;10445194;28;20124;-75
2023/07/27 07:53:48;;;;;;;6.70;5.47;;;;;;;15.29;100.00;100312.31;10435196;28;20578;-74
2023/07/27 07:58:49;;;;;;;6.38;4.43;;;;;;;15.36;100.00;100312.47;10460748;28;20116;-74
2023/07/27 08:03:49;;;;;;;8.30;4.47;;;;;;;15.38;100.00;100301.94;10506995;28;20512;-76
2023/07/27 08:08:50;;;;;;;6.15;4.65;;;;;;;15.33;100.00;100312.41;10501284;28;20095;-75
2023/07/27 08:13:50;;;;;;;15.57;6.85;;;;;;;15.45;100.00;100302.94;10447706;28;20094;-75
2023/07/27 08:18:51;;;;;;;8.65;6.22;;;;;;;15.47;100.00;100302.09;10458620;28;20049;-76
2023/07/27 08:23:52;;;;;;;11.73;6.32;;;;;;;15.57;100.00;100304.03;10439183;28;20528;-75
2023/07/27 08:28:53;;;;;;;10.75;6.15;;;;;;;15.67;100.00;100314.75;10449035;28;20045;-76
2023/07/27 08:33:54;;;;;;;8.80;4.78;;;;;;;15.71;100.00;100300.78;10421161;28;20521;-76
2023/07/27 08:38:54;;;;;;;27.85;18.50;;;;;;;15.78;100.00;100304.41;10432632;28;20049;-76
2023/07/27 08:43:55;;;;;;;12.25;8.40;;;;;;;15.80;100.00;100303.56;10450149;28;20406;-76
2023/07/27 08:48:56;;;;;;;10.53;7.23;;;;;;;15.90;100.00;100294.09;10456010;28;20033;-75
2023/07/27 08:53:56;;;;;;;10.45;7.38;;;;;;;15.86;100.00;100297.53;10435987;28;20485;-75
2023/07/27 08:58:57;;;;;;;6.90;5.00;;;;;;;15.91;100.00;100297.63;10458980;28;20051;-74
2023/07/27 09:03:58;;;;;;;7.22;4.57;;;;;;;16.01;100.00;100296.91;10422213;28;20037;-75
2023/07/27 09:08:58;;;;;;;8.18;4.93;;;;;;;16.12;100.00;100297.97;10430993;28;20040;-74
2023/07/27 09:14:01;;;;;;;5.28;4.03;;;;;;;16.15;100.00;100295.38;10400680;28;20086;-75
2023/07/27 09:19:02;;;;;;;4.88;3.15;;;;;;;16.24;100.00;100296.38;10439776;28;20045;-76
2023/07/27 09:24:03;;;;;;;4.35;3.53;;;;;;;16.46;100.00;100292.31;10435687;28;20521;-75
2023/07/27 09:29:04;;;;;;;4.28;3.10;;;;;;;16.37;100.00;100285.13;10429959;28;20068;-76
2023/07/27 09:34:05;;;;;;;5.43;2.97;;;;;;;16.53;100.00;100291.53;10421066;28;20053;-75
2023/07/27 09:39:05;;;;;;;5.68;3.85;;;;;;;16.59;100.00;100288.97;10421020;28;20041;-76
2023/07/27 09:44:06;;;;;;;8.23;3.50;;;;;;;16.63;100.00;100284.63;10434264;28;20488;-75
2023/07/27 09:49:06;;;;;;;4.88;3.15;;;;;;;16.65;100.00;100274.97;10439354;28;20036;-75
2023/07/27 09:54:07;;;;;;;5.65;2.97;;;;;;;17.01;100.00;100273.66;10440167;28;20128;-75
2023/07/27 09:59:08;;;;;;;7.93;2.85;;;;;;;17.50;100.00;100260.97;10436996;28;20047;-75
2023/07/27 10:04:08;;;;;;;4.97;2.22;;;;;;;17.66;100.00;100268.19;10440587;28;20056;-75
2023/07/27 10:09:22;;;;;;;4.28;2.95;;;;;;;17.56;100.00;100261.03;10439641;28;20076;-75
2023/07/27 10:14:26;;;;;;;5.78;2.40;;;;;;;17.47;100.00;100259.16;10437542;28;20040;-75
2023/07/27 10:19:41;;;;;;;3.20;1.85;;;;;;;17.58;100.00;100265.44;10478112;28;20033;-75
2023/07/27 10:25:00;;;;;;;6.45;2.20;;;;;;;17.84;100.00;100270.06;10500525;28;20029;-74
2023/07/27 10:30:11;;;;;;;4.45;2.45;;;;;;;17.85;100.00;100265.69;10478976;28;20134;-75
2023/07/27 10:35:11;;;;;;;4.55;2.10;;;;;;;17.68;100.00;100266.44;10494693;28;20032;-75
2023/07/27 10:40:22;;;;;;;3.13;1.63;;;;;;;17.64;100.00;100274.31;10506849;28;20094;-75
2023/07/27 10:45:24;;;;;;;2.58;1.80;;;;;;;17.81;100.00;100298.28;10501259;28;20071;-74
2023/07/27 10:50:25;;;;;;;2.58;1.80;;;;;;;18.11;100.00;100291.50;10508663;28;20040;-74
2023/07/27 10:55:25;;;;;;;4.28;1.48;;;;;;;17.99;100.00;100274.63;10500044;28;20040;-76
2023/07/27 11:00:34;;;;;;;1.70;1.30;;;;;;;18.05;100.00;100266.75;10505943;28;20036;-74
2023/07/27 11:05:35;;;;;;;1.40;0.90;;;;;;;18.56;100.00;100260.91;10502485;28;20090;-75
2023/07/27 11:10:35;;;;;;;3.08;1.17;;;;;;;18.79;100.00;100245.06;10508072;28;20036;-75
2023/07/27 11:15:36;;;;;;;2.53;0.68;;;;;;;18.48;100.00;100255.53;10485735;28;20036;-75
2023/07/27 11:20:36;;;;;;;1.83;0.75;;;;;;;18.12;100.00;100265.03;10475818;28;20041;-75
2023/07/27 11:25:37;;;;;;;2.60;0.77;;;;;;;17.86;100.00;100270.09;10443806;28;20059;-75
2023/07/27 11:30:38;;;;;;;1.55;0.90;;;;;;;17.70;100.00;100271.72;10420714;28;20128;-76
2023/07/27 11:35:46;;;;;;;2.65;0.90;;;;;;;17.78;100.00;100277.97;10442551;28;20044;-76
2023/07/27 11:40:47;;;;;;;1.58;1.02;;;;;;;17.80;100.00;100272.72;10438800;28;20041;-75
2023/07/27 11:45:47;;;;;;;2.73;0.90;;;;;;;17.74;100.00;100269.13;10442145;28;20060;-75
2023/07/27 11:50:48;;;;;;;2.17;1.85;;;;;;;17.63;100.00;100272.53;10435145;28;20481;-75
2023/07/27 11:55:48;;;;;;;1.73;1.10;;;;;;;17.56;100.00;100271.63;10434306;28;20144;-75
2023/07/27 12:00:50;;;;;;;1.65;1.42;;;;;;;17.63;100.00;100281.38;10433820;28;20044;-75
2023/07/27 12:05:56;;;;;;;9.27;6.43;;;;;;;17.82;100.00;100286.84;10464313;28;20037;-74
2023/07/27 12:10:59;;;;;;;18.58;12.15;;;;;;;17.93;100.00;100294.84;10472960;28;20158;-75
2023/07/27 12:16:01;;;;;;;3.97;2.33;;;;;;;17.71;100.00;100274.41;10475425;28;20044;-76
2023/07/27 12:21:01;;;;;;;4.00;1.93;;;;;;;17.86;100.00;100270.97;10458563;28;20120;-76
2023/07/27 12:26:02;;;;;;;1.90;1.45;;;;;;;18.19;100.00;100261.53;10449919;28;1307412;-76
2023/07/27 12:31:03;;;;;;;3.25;1.80;;;;;;;18.37;100.00;100261.66;10494159;28;20090;-76
2023/07/27 12:36:03;;;;;;;3.55;1.38;;;;;;;18.16;100.00;100261.53;10502478;28;20886;-75
2023/07/27 12:41:04;;;;;;;3.47;2.03;;;;;;;18.08;100.00;100276.47;10494848;28;20128;-76
2023/07/27 12:46:04;;;;;;;3.33;1.83;;;;;;;18.39;100.00;100271.38;10504123;28;20094;-75
2023/07/27 12:51:05;;;;;;;3.20;2.00;;;;;;;18.12;100.00;100275.63;10507425;28;20545;-74
2023/07/27 12:56:06;;;;;;;4.68;2.20;;;;;;;18.00;100.00;100284.38;10501595;28;20131;-75
2023/07/27 13:01:06;;;;;;;5.80;2.72;;;;;;;17.98;100.00;100282.53;10500383;28;20484;-76
2023/07/27 13:06:07;;;;;;;5.43;2.60;;;;;;;17.99;100.00;100282.56;10502073;28;20047;-77
2023/07/27 13:11:07;;;;;;;6.70;2.85;;;;;;;18.12;100.00;100286.22;10502247;28;20133;-77
2023/07/27 13:16:08;;;;;;;4.72;3.15;;;;;;;18.40;100.00;100273.16;10502728;28;20116;-76
2023/07/27 13:21:08;;;;;;;4.10;1.80;;;;;;;18.83;100.00;100253.94;10500551;28;20107;-75
2023/07/27 13:26:09;;;;;;;4.20;2.08;;;;;;;18.97;100.00;100251.34;10490916;28;20062;-75
2023/07/27 13:31:14;;;;;;;2.88;1.65;;;;;;;19.39;100.00;100245.25;10494888;28;20059;-77
2023/07/27 13:36:14;;;;;;;3.28;1.65;;;;;;;18.98;100.00;100245.19;10480734;28;20097;-76
2023/07/27 13:41:15;;;;;;;6.95;2.33;;;;;;;18.61;100.00;100276.78;10503097;28;20032;-75
2023/07/27 13:46:16;;;;;;;4.88;2.58;;;;;;;18.52;100.00;100297.94;10483908;28;20100;-76
2023/07/27 13:51:16;;;;;;;3.92;2.28;;;;;;;18.22;100.00;100295.13;10509006;28;20120;-77
2023/07/27 13:56:17;;;;;;;4.10;1.85;;;;;;;18.20;100.00;100289.81;10501289;28;20531;-76
2023/07/27 14:01:17;;;;;;;3.13;1.70;;;;;;;18.67;100.00;100284.78;10506685;28;20038;-77
2023/07/27 14:06:18;;;;;;;6.30;4.40;;;;;;;18.90;100.00;100273.41;10478913;28;20056;-76
2023/07/27 14:11:18;;;;;;;2.58;1.55;;;;;;;18.82;100.00;100267.19;10501189;28;20071;-75
2023/07/27 14:16:20;;;;;;;1.95;1.00;;;;;;;18.31;100.00;100286.34;10487749;28;20063;-76
2023/07/27 14:21:20;;;;;;;2.47;1.17;;;;;;;17.72;100.00;100294.69;10489835;28;20036;-78
2023/07/27 14:26:21;;;;;;;1.95;1.40;;;;;;;17.42;100.00;100304.09;10491279;28;20066;-78
2023/07/27 14:31:22;;;;;;;3.28;1.98;;;;;;;17.22;100.00;100322.38;10502037;28;20440;-78
2023/07/27 14:36:22;;;;;;;5.15;1.85;;;;;;;17.21;100.00;100317.09;10503728;28;20070;-76
2023/07/27 14:41:23;;;;;;;4.03;2.15;;;;;;;17.33;100.00;100325.16;10500780;28;20120;-77
2023/07/27 14:46:24;;;;;;;5.45;3.85;;;;;;;17.44;100.00;100307.66;10498270;28;20050;-77
2023/07/27 14:51:24;;;;;;;5.10;2.33;;;;;;;17.60;100.00;100311.31;10488623;28;20048;-77
2023/07/27 14:56:25;;;;;;;4.35;2.15;;;;;;;17.63;100.00;100307.84;10436855;28;20041;-78
2023/07/27 15:01:26;;;;;;;4.25;2.30;;;;;;;17.58;100.00;100318.38;10439510;28;20504;-77
2023/07/27 15:06:26;;;;;;;3.78;2.10;;;;;;;17.35;100.00;100325.16;10437123;28;20043;-78
2023/07/27 15:11:28;;;;;;;3.17;1.70;;;;;;;17.34;100.00;100332.22;10441087;28;20064;-78
2023/07/27 15:16:28;;;;;;;4.38;1.98;;;;;;;17.23;100.00;100341.78;10439821;28;20045;-76
2023/07/27 15:21:29;;;;;;;3.40;2.08;;;;;;;17.19;100.00;100335.56;10447796;28;20048;-77
2023/07/27 15:26:29;;;;;;;5.00;3.03;;;;;;;17.22;100.00;100338.25;10471655;28;20507;-76
2023/07/27 15:31:30;;;;;;;3.33;2.22;;;;;;;17.25;100.00;100334.75;10477250;28;20032;-77
2023/07/27 15:36:31;;;;;;;3.95;2.35;;;;;;;17.36;100.00;100341.06;10447097;28;20131;-77
2023/07/27 15:41:31;;;;;;;4.80;2.30;;;;;;;17.23;100.00;100334.72;10463627;28;20047;-76
2023/07/27 15:46:32;;;;;;;4.47;2.55;;;;;;;17.33;100.00;100335.75;10466802;28;20434;-76
2023/07/27 15:51:32;;;;;;;4.60;2.33;;;;;;;17.37;100.00;100339.28;10461377;28;20037;-76
2023/07/27 15:56:33;;;;;;;7.53;2.03;;;;;;;17.26;100.00;100348.00;10454995;28;20045;-76
2023/07/27 16:01:33;;;;;;;3.08;2.03;;;;;;;17.02;100.00;100343.31;10453135;28;20041;-76
2023/07/27 16:06:34;;;;;;;2.38;1.52;;;;;;;16.87;100.00;100346.59;10455936;28;20044;-77
2023/07/27 16:11:35;;;;;;;6.70;2.35;;;;;;;16.78;100.00;100351.75;10463635;28;20079;-78
2023/07/27 16:16:36;;;;;;;4.28;2.45;;;;;;;16.78;100.00;100349.09;10458071;28;20119;-79
2023/07/27 16:21:36;;;;;;;4.57;2.22;;;;;;;16.74;100.00;100348.19;10470543;28;20044;-78
2023/07/27 16:26:37;;;;;;;4.38;2.83;;;;;;;16.94;100.00;100350.22;10459428;28;20079;-77
2023/07/27 16:31:38;;;;;;;4.25;1.73;;;;;;;16.95;100.00;100330.84;10458417;28;20497;-77
2023/07/27 16:36:38;;;;;;;4.18;2.00;;;;;;;17.09;100.00;100331.94;10462988;28;20048;-77
2023/07/27 16:41:39;;;;;;;4.25;2.33;;;;;;;17.11;100.00;100326.66;10439252;28;20033;-77
2023/07/27 16:46:39;;;;;;;2.88;1.85;;;;;;;16.99;100.00;100333.56;10458912;28;20044;-76
2023/07/27 16:51:40;;;;;;;2.97;2.17;;;;;;;16.82;100.00;100338.59;10464654;28;20024;-78
2023/07/27 16:56:40;;;;;;;4.43;2.30;;;;;;;16.71;100.00;100349.00;10453703;28;20052;-78
2023/07/27 17:01:42;;;;;;;5.00;2.30;;;;;;;16.70;100.00;100349.00;10466894;28;20445;-77
2023/07/27 17:06:42;;;;;;;3.35;1.63;;;;;;;16.64;100.00;100347.16;10442212;28;20056;-78
2023/07/27 17:11:43;;;;;;;10.73;1.90;;;;;;;16.61;100.00;100359.44;10452845;28;20061;-77
2023/07/27 17:16:43;;;;;;;4.78;1.38;;;;;;;16.52;100.00;100357.53;10460693;28;20366;-76
2023/07/27 17:21:44;;;;;;;2.40;1.55;;;;;;;16.50;100.00;100361.91;10459385;28;20115;-75
2023/07/27 17:26:44;;;;;;;3.58;2.28;;;;;;;16.46;100.00;100349.53;10459860;28;20036;-76
2023/07/27 17:31:45;;;;;;;5.03;2.05;;;;;;;16.46;100.00;100357.44;10467817;28;20554;-77
2023/07/27 17:36:45;;;;;;;2.80;1.90;;;;;;;16.49;100.00;100363.69;10443599;28;20029;-77
2023/07/27 17:41:46;;;;;;;2.08;1.48;;;;;;;16.48;100.00;100363.63;10468960;28;20115;-76
2023/07/27 17:46:46;;;;;;;10.15;6.47;;;;;;;16.47;100.00;100361.84;10455633;28;20044;-76
2023/07/27 17:51:47;;;;;;;7.38;3.58;;;;;;;16.43;100.00;100356.53;10440553;28;20086;-78
2023/07/27 17:56:47;;;;;;;5.30;3.08;;;;;;;16.36;100.00;100357.31;10434526;28;20546;-76
2023/07/27 18:01:48;;;;;;;4.40;2.83;;;;;;;16.41;100.00;100357.38;10440632;28;20834;-77
2023/07/27 18:06:48;;;;;;;4.03;2.22;;;;;;;16.39;100.00;100345.91;10437388;28;20051;-78
2023/07/27 18:11:49;;;;;;;4.40;2.10;;;;;;;16.42;100.00;100352.13;10440586;28;20086;-77
2023/07/27 18:16:50;;;;;;;2.72;1.83;;;;;;;16.43;100.00;100351.25;10436154;28;20045;-77
2023/07/27 18:21:50;;;;;;;2.40;1.58;;;;;;;16.43;100.00;100351.25;10439986;28;20045;-77
2023/07/27 18:26:51;;;;;;;7.13;3.08;;;;;;;16.47;100.00;100348.66;10438799;28;20151;-78
2023/07/27 18:31:51;;;;;;;4.28;2.33;;;;;;;16.46;100.00;100350.44;10468578;28;20136;-77
2023/07/27 18:36:52;;;;;;;4.68;2.33;;;;;;;16.37;100.00;100348.50;10431774;28;20050;-77
2023/07/27 18:41:52;;;;;;;4.18;2.47;;;;;;;16.32;100.00;100338.75;10471957;28;20548;-76
2023/07/27 18:46:53;;;;;;;5.45;2.40;;;;;;;16.25;100.00;100343.03;10460530;28;20045;-75
2023/07/27 18:51:53;;;;;;;5.93;3.20;;;;;;;16.20;100.00;100348.25;10461697;28;20198;-75
2023/07/27 18:56:54;;;;;;;4.88;3.10;;;;;;;16.17;100.00;100349.94;10473543;28;20044;-76
2023/07/27 19:01:54;;;;;;;6.65;4.32;;;;;;;16.13;100.00;100352.53;10473965;28;20040;-75
2023/07/27 19:06:56;;;;;;;8.70;4.53;;;;;;;16.09;100.00;100353.34;10467469;28;20127;-75
2023/07/27 19:11:57;;;;;;;6.78;3.78;;;;;;;16.00;100.00;100351.47;10479618;28;20040;-76
2023/07/27 19:16:58;;;;;;;9.07;5.20;;;;;;;15.98;100.00;100360.19;10468161;28;20472;-76
2023/07/27 19:21:58;;;;;;;8.10;5.05;;;;;;;15.98;100.00;100354.91;10470855;28;20141;-77
2023/07/27 19:26:59;;;;;;;8.45;3.72;;;;;;;15.97;100.00;100367.25;10466353;28;20041;-75
2023/07/27 19:31:59;;;;;;;3.35;2.22;;;;;;;15.98;100.00;100365.47;10469854;28;20048;-76
2023/07/27 19:37:00;;;;;;;4.50;2.78;;;;;;;15.95;100.00;100368.06;10467212;28;20049;-77
2023/07/27 19:42:02;;;;;;;6.22;2.58;;;;;;;15.96;100.00;100373.38;10471189;28;20074;-76
2023/07/27 19:47:06;;;;;;;5.45;2.45;;;;;;;15.99;100.00;100378.72;10443962;28;20096;-76
2023/07/27 19:52:07;;;;;;;14.88;10.20;;;;;;;15.98;100.00;100379.56;10457505;28;20044;-77
2023/07/27 19:57:07;;;;;;;12.23;6.72;;;;;;;15.98;100.00;100381.31;10444835;28;20037;-77
2023/07/27 20:02:08;;;;;;;7.80;4.10;;;;;;;16.03;100.00;100382.28;10444146;28;20076;-76
2023/07/27 20:07:08;;;;;;;6.00;3.30;;;;;;;15.99;100.00;100384.00;10440778;28;20380;-78
2023/07/27 20:12:09;;;;;;;4.78;2.83;;;;;;;15.96;100.00;100383.03;10446219;28;20044;-77
2023/07/27 20:17:09;;;;;;;5.65;2.90;;;;;;;15.92;100.00;100386.47;10434991;28;20037;-77
2023/07/27 20:22:10;;;;;;;3.72;2.53;;;;;;;15.90;100.00;100391.75;10444794;28;20554;-76
2023/07/27 20:27:10;;;;;;;4.88;2.88;;;;;;;15.89;100.00;100383.78;10435263;28;20105;-76
2023/07/27 20:32:11;;;;;;;6.25;3.72;;;;;;;15.84;100.00;100370.50;10437859;28;20503;-76
2023/07/27 20:37:12;;;;;;;6.07;3.63;;;;;;;15.81;100.00;100373.06;10440986;28;20124;-76
2023/07/27 20:42:12;;;;;;;5.93;3.78;;;;;;;15.78;100.00;100373.88;10439371;28;20095;-76
2023/07/27 20:47:13;;;;;;;5.97;3.60;;;;;;;15.78;100.00;100367.75;10429091;28;20051;-77
2023/07/27 20:52:13;;;;;;;6.30;3.33;;;;;;;15.74;100.00;100358.00;10441889;28;20068;-77
2023/07/27 20:57:14;;;;;;;9.43;4.03;;;;;;;15.75;100.00;100362.41;10443014;28;20036;-76
2023/07/27 21:02:14;;;;;;;7.78;4.07;;;;;;;15.75;100.00;100379.09;10441945;28;20041;-76
2023/07/27 21:07:15;;;;;;;7.63;4.50;;;;;;;15.75;100.00;100367.69;10442925;28;20039;-75
2023/07/27 21:12:18;;;;;;;6.20;3.35;;;;;;;15.70;100.00;100373.75;10441132;28;20396;-76
2023/07/27 21:17:19;;;;;;;7.35;4.07;;;;;;;15.70;100.00;100371.13;10442721;28;20087;-75
2023/07/27 21:22:19;;;;;;;5.88;3.55;;;;;;;15.69;100.00;100371.06;10441107;28;20097;-75
2023/07/27 21:27:20;;;;;;;5.95;3.08;;;;;;;15.71;100.00;100365.00;10442209;28;20043;-75
2023/07/27 21:32:21;;;;;;;9.00;3.30;;;;;;;15.69;100.00;100365.81;10439595;28;20057;-77
2023/07/27 21:37:21;;;;;;;7.10;3.42;;;;;;;15.70;100.00;100368.47;10442380;28;20048;-77
2023/07/27 21:42:22;;;;;;;5.60;3.33;;;;;;;15.67;100.00;100352.59;10440912;28;20049;-76
2023/07/27 21:47:22;;;;;;;4.38;2.90;;;;;;;15.65;100.00;100353.41;10441587;28;20041;-76
2023/07/27 21:52:23;;;;;;;7.57;2.72;;;;;;;15.63;100.00;100339.31;10433298;28;20051;-76
2023/07/27 21:57:23;;;;;;;4.43;2.58;;;;;;;15.63;100.00;100347.22;10439996;28;20128;-76
2023/07/27 22:02:24;;;;;;;5.03;2.92;;;;;;;15.59;100.00;100356.84;10440383;28;20083;-76
2023/07/27 22:07:24;;;;;;;4.07;2.13;;;;;;;15.58;100.00;100344.50;10441327;28;20123;-76
2023/07/27 22:12:25;;;;;;;5.88;2.92;;;;;;;15.59;100.00;100342.75;10439905;28;20043;-76
2023/07/27 22:17:25;;;;;;;6.15;2.30;;;;;;;15.56;100.00;100343.59;10440184;28;20029;-76
2023/07/27 22:22:26;;;;;;;4.47;2.65;;;;;;;15.60;100.00;100341.88;10428189;28;20410;-77
2023/07/27 22:27:27;;;;;;;5.70;2.83;;;;;;;15.55;100.00;100329.50;10444577;28;20369;-76
2023/07/27 22:32:27;;;;;;;5.50;2.47;;;;;;;15.57;100.00;100332.19;10438688;28;20033;-76
2023/07/27 22:37:28;;;;;;;5.65;2.72;;;;;;;15.53;100.00;100331.22;10448410;28;20048;-77
2023/07/27 22:42:28;;;;;;;3.85;2.33;;;;;;;15.53;100.00;100328.59;10450130;28;20124;-77